createdAt,value
2019-01-16T06:10:40.912Z,3.60
2019-01-16T06:14:17.789Z,4.33
2019-01-16T06:16:51.919Z,6.57
2019-01-16T06:19:24.927Z,4.37
2019-01-16T06:22:30.522Z,4.80
2019-01-16T06:25:10.509Z,5.17
2019-01-16T06:27:48.637Z,4.27
2019-01-16T06:30:40.712Z,3.30
2019-01-16T06:34:16.500Z,3.97
2019-01-16T06:36:50.378Z,4.03
2019-01-16T06:39:24.368Z,7.53
2019-01-16T06:41:59.808Z,4.00
2019-01-16T06:44:34.569Z,4.47
2019-01-16T06:47:08.652Z,3.63
2019-01-16T06:49:47.112Z,7.27
2019-01-16T06:52:22.032Z,5.23
2019-01-16T06:54:59.897Z,4.43
2019-01-16T06:59:41.155Z,3.63
2019-01-16T07:02:16.324Z,5.00
2019-01-16T07:04:52.419Z,7.17
2019-01-16T07:07:30.275Z,3.87
2019-01-16T07:10:05.155Z,6.77
2019-01-16T07:12:39.481Z,3.93
2019-01-16T07:15:14.055Z,4.93
2019-01-16T07:17:52.124Z,3.33
2019-01-16T07:20:45.012Z,2.33
2019-01-16T07:23:21.010Z,3.30
2019-01-16T07:26:28.369Z,3.13
2019-01-16T07:29:06.020Z,5.57
2019-01-16T07:31:39.889Z,1.90
2019-01-16T07:34:15.933Z,2.50
2019-01-16T07:37:20.347Z,2.83
2019-01-16T07:39:54.413Z,2.23
2019-01-16T07:42:46.938Z,5.77
2019-01-16T07:45:17.541Z,4.17
2019-01-16T07:47:52.858Z,4.20
2019-01-16T07:51:27.843Z,4.80
2019-01-16T07:54:02.033Z,3.93
2019-01-16T07:56:35.713Z,3.80
2019-01-16T07:59:41.131Z,3.73
2019-01-16T08:02:18.439Z,3.67
2019-01-16T08:04:52.674Z,3.57
2019-01-16T08:07:26.423Z,4.10
2019-01-16T08:10:03.943Z,3.73
2019-01-16T08:12:38.886Z,4.53
2019-01-16T08:15:14.741Z,5.10
2019-01-16T08:18:24.098Z,4.23
2019-01-16T08:21:00.091Z,4.53
2019-01-16T08:23:42.028Z,3.97
2019-01-16T08:26:16.291Z,5.13
2019-01-16T08:29:00.229Z,3.30
2019-01-16T08:31:38.227Z,5.57
2019-01-16T08:34:17.184Z,5.00
2019-01-16T08:37:52.098Z,3.17
2019-01-16T08:40:26.176Z,3.43
2019-01-16T08:43:05.195Z,2.83
2019-01-16T08:47:49.283Z,4.57
2019-01-16T08:50:40.499Z,5.03
2019-01-16T08:53:28.484Z,4.23
2019-01-16T08:56:02.408Z,3.67
2019-01-16T08:58:37.185Z,2.83
2019-01-16T09:01:45.563Z,3.63
2019-01-16T09:04:19.678Z,5.27
2019-01-16T09:06:53.865Z,5.43
2019-01-16T09:09:28.948Z,4.67
2019-01-16T09:13:02.367Z,2.13
2019-01-16T09:15:43.233Z,4.00
2019-01-16T09:18:36.812Z,4.53
2019-01-16T09:21:18.795Z,2.37
2019-01-16T09:23:53.832Z,2.70
2019-01-16T09:26:27.719Z,3.77
2019-01-16T09:29:01.767Z,3.33
2019-01-16T09:32:08.352Z,4.00
2019-01-16T09:34:44.403Z,3.17
2019-01-16T09:37:48.986Z,4.97
2019-01-16T09:40:25.607Z,3.07
2019-01-16T09:44:00.617Z,4.13
2019-01-16T09:47:32.473Z,4.47
2019-01-16T09:50:09.425Z,3.97
2019-01-16T09:52:43.635Z,4.40
2019-01-16T09:55:17.809Z,3.17
2019-01-16T09:57:58.071Z,3.87
2019-01-16T10:01:36.446Z,4.30
2019-01-16T10:04:10.676Z,3.77
2019-01-16T10:06:47.988Z,4.30
2019-01-16T10:09:22.349Z,3.77
2019-01-16T10:11:55.325Z,5.37
2019-01-16T10:14:33.205Z,4.27
2019-01-16T10:17:12.965Z,4.23
2019-01-16T10:19:53.475Z,3.23
2019-01-16T10:22:28.418Z,4.73
2019-01-16T10:25:36.086Z,4.30
2019-01-16T10:28:13.857Z,3.70
2019-01-16T10:30:50.868Z,5.77
2019-01-16T10:33:27.616Z,3.90
2019-01-16T10:36:59.511Z,2.83
2019-01-16T10:39:34.489Z,3.87
2019-01-16T10:42:09.328Z,4.40
2019-01-16T10:44:43.287Z,3.83
2019-01-16T10:47:22.428Z,6.60
2019-01-16T10:51:03.202Z,3.53
2019-01-16T10:53:34.417Z,4.13
2019-01-16T10:56:14.000Z,4.43
2019-01-16T10:58:48.823Z,3.77
2019-01-16T11:01:28.293Z,5.77
2019-01-16T11:04:05.823Z,6.10
2019-01-16T11:06:58.942Z,6.40
2019-01-16T11:09:32.968Z,5.87
2019-01-16T11:12:10.159Z,4.37
2019-01-16T11:14:44.460Z,4.87
2019-01-16T11:18:19.447Z,3.00
2019-01-16T11:21:13.655Z,5.27
2019-01-16T11:23:51.368Z,3.80
2019-01-16T11:26:34.975Z,5.33
2019-01-16T11:29:11.257Z,4.43
2019-01-16T11:31:47.224Z,3.60
2019-01-16T11:34:22.161Z,2.60
2019-01-16T11:39:03.586Z,5.50
2019-01-16T11:41:37.830Z,3.97
2019-01-16T11:44:13.392Z,4.20
2019-01-16T11:48:53.275Z,5.90
2019-01-16T11:51:33.797Z,4.57
2019-01-16T11:54:09.171Z,5.30
2019-01-16T11:56:43.463Z,5.57
2019-01-16T11:59:19.336Z,5.30
2019-01-16T12:01:57.675Z,5.43
2019-01-16T12:04:30.605Z,4.40
2019-01-16T12:07:05.799Z,4.70
2019-01-16T12:09:40.821Z,5.50
2019-01-16T12:12:15.568Z,3.20
2019-01-16T12:14:51.588Z,3.33
2019-01-16T12:17:26.442Z,4.93
2019-01-16T12:20:04.319Z,5.40
2019-01-16T12:22:43.304Z,5.00
2019-01-16T12:25:17.188Z,8.93
2019-01-16T12:27:57.645Z,5.90
2019-01-16T12:30:49.974Z,5.23
2019-01-16T12:33:25.799Z,6.30
2019-01-16T12:36:00.241Z,15.50
2019-01-16T12:38:35.203Z,27.43
2019-01-16T12:41:09.647Z,69.07
2019-01-16T12:43:43.756Z,33.73
2019-01-16T12:46:20.799Z,6.23
2019-01-16T12:48:56.791Z,5.87
2019-01-16T12:51:33.805Z,6.07
2019-01-16T12:54:06.881Z,6.10
2019-01-16T12:56:45.622Z,5.90
2019-01-16T12:59:19.767Z,5.00
2019-01-16T13:01:59.099Z,4.77
2019-01-16T13:04:40.248Z,8.17
2019-01-16T13:07:18.257Z,5.17
2019-01-16T13:09:52.567Z,5.90
2019-01-16T13:12:26.895Z,5.27
2019-01-16T13:15:03.340Z,5.27
2019-01-16T13:17:42.147Z,5.63
2019-01-16T13:21:15.500Z,5.10
2019-01-16T13:23:49.795Z,7.87
2019-01-16T13:26:24.889Z,9.50
2019-01-16T13:31:06.375Z,9.23
2019-01-16T13:33:44.830Z,6.13
2019-01-16T13:36:36.979Z,5.73
2019-01-16T13:39:27.415Z,6.40
2019-01-16T13:42:36.413Z,4.90
2019-01-16T13:46:13.770Z,6.30
2019-01-16T13:48:53.798Z,7.77
2019-01-16T13:51:29.464Z,7.10
2019-01-16T13:54:34.370Z,5.47
2019-01-16T13:57:12.726Z,7.77
2019-01-16T13:59:47.005Z,6.07
2019-01-16T14:02:31.225Z,7.13
2019-01-16T14:05:37.615Z,7.80
2019-01-16T14:08:25.795Z,6.07
2019-01-16T14:11:00.615Z,8.03
2019-01-16T14:13:36.505Z,7.33
2019-01-16T14:16:31.131Z,5.43
2019-01-16T14:20:11.356Z,8.63
2019-01-16T14:23:49.692Z,9.63
2019-01-16T14:26:22.789Z,9.23
2019-01-16T14:28:59.811Z,6.67
2019-01-16T14:32:39.523Z,4.93
2019-01-16T14:35:13.704Z,7.97
2019-01-16T14:39:50.757Z,6.73
2019-01-16T14:44:28.209Z,7.77
2019-01-16T14:47:05.495Z,7.47
2019-01-16T14:49:42.400Z,10.97
2019-01-16T14:52:20.463Z,6.93
2019-01-16T14:54:54.304Z,8.33
2019-01-16T14:57:27.252Z,8.07
2019-01-16T15:00:05.389Z,9.80
2019-01-16T15:02:40.796Z,8.43
2019-01-16T15:05:20.142Z,9.47
2019-01-16T15:07:54.584Z,6.83
2019-01-16T15:10:29.691Z,5.97
2019-01-16T15:14:03.841Z,6.33
2019-01-16T15:16:40.184Z,9.60
2019-01-16T15:19:14.246Z,7.57
2019-01-16T15:21:48.813Z,5.00
2019-01-16T15:24:26.576Z,6.00
2019-01-16T15:26:59.649Z,5.80
2019-01-16T15:29:47.582Z,3.70
2019-01-16T15:32:26.945Z,4.70
2019-01-16T15:37:06.199Z,7.83
2019-01-16T15:39:46.316Z,6.93
2019-01-16T15:42:20.636Z,8.57
2019-01-16T15:44:58.493Z,8.80
2019-01-16T15:47:32.927Z,3.17
2019-01-16T15:52:13.142Z,9.17
2019-01-16T15:54:46.779Z,6.97
2019-01-16T15:58:24.092Z,7.73
2019-01-16T16:01:02.381Z,7.70
2019-01-16T16:03:37.016Z,5.57
2019-01-16T16:06:27.152Z,5.63
2019-01-16T16:09:00.496Z,5.40
2019-01-16T16:11:34.709Z,5.53
2019-01-16T16:14:10.540Z,6.10
2019-01-16T16:17:16.667Z,5.70
2019-01-16T16:19:54.355Z,5.57
2019-01-16T16:24:32.399Z,5.93
2019-01-16T16:28:06.611Z,4.03
2019-01-16T16:31:12.753Z,6.33
2019-01-16T16:33:50.024Z,4.47
2019-01-16T16:36:24.479Z,6.27
2019-01-16T16:38:58.996Z,4.87
2019-01-16T16:43:39.136Z,6.30
2019-01-16T16:46:13.882Z,4.77
2019-01-16T16:48:50.127Z,6.50
2019-01-16T16:51:24.389Z,5.97
2019-01-16T16:54:02.735Z,4.50
2019-01-16T16:57:41.509Z,6.20
2019-01-16T17:00:33.745Z,4.77
2019-01-16T17:03:12.998Z,5.33
2019-01-16T17:06:45.191Z,5.73
2019-01-16T17:10:22.200Z,7.03
2019-01-16T17:13:54.521Z,5.73
2019-01-16T17:16:36.981Z,3.47
2019-01-16T17:20:11.807Z,9.03
2019-01-16T17:22:48.646Z,7.10
2019-01-16T17:25:26.563Z,12.73
2019-01-16T17:28:37.232Z,7.37
2019-01-16T17:31:12.691Z,7.23
2019-01-16T17:33:53.021Z,5.83
2019-01-16T17:36:27.906Z,6.17
2019-01-16T17:39:01.564Z,5.17
2019-01-16T17:41:35.297Z,6.70
2019-01-16T17:44:09.552Z,9.10
2019-01-16T17:46:44.530Z,4.00
2019-01-16T17:49:24.473Z,6.90
2019-01-16T17:51:57.440Z,5.87
2019-01-16T17:54:32.117Z,6.30
2019-01-16T17:57:12.375Z,7.70
2019-01-16T17:59:46.872Z,6.23
2019-01-16T18:04:25.975Z,6.70
2019-01-16T18:07:16.511Z,9.83
2019-01-16T18:09:52.660Z,5.67
2019-01-16T18:12:32.491Z,8.83
2019-01-16T18:15:41.531Z,6.93
2019-01-16T18:18:17.412Z,9.47
2019-01-16T18:20:54.568Z,9.33
2019-01-16T18:23:39.005Z,8.00
2019-01-16T18:26:14.004Z,10.37
2019-01-16T18:28:50.960Z,5.43
2019-01-16T18:31:44.149Z,6.50
2019-01-16T18:34:17.110Z,7.30
2019-01-16T18:37:55.236Z,7.37
2019-01-16T18:40:29.108Z,6.27
2019-01-16T18:43:14.527Z,6.23
2019-01-16T18:46:46.487Z,7.77
2019-01-16T18:49:19.803Z,6.10
2019-01-16T18:53:57.511Z,7.47
2019-01-16T18:58:34.632Z,5.23
2019-01-16T19:01:09.330Z,7.93
2019-01-16T19:03:45.143Z,4.47
2019-01-16T19:06:19.154Z,4.90
2019-01-16T19:08:54.985Z,4.40
2019-01-16T19:11:28.987Z,6.03
2019-01-16T19:14:04.815Z,7.43
2019-01-16T19:16:38.338Z,8.27
2019-01-16T19:19:14.318Z,5.50
2019-01-16T19:21:48.911Z,3.70
2019-01-16T19:24:30.914Z,7.83
2019-01-16T19:27:04.850Z,8.63
2019-01-16T19:30:04.251Z,8.33
2019-01-16T19:32:46.383Z,4.03
2019-01-16T19:35:20.759Z,8.80
2019-01-16T19:37:55.133Z,7.77
2019-01-16T19:41:03.577Z,6.87
2019-01-16T19:43:40.507Z,4.47
2019-01-16T19:46:16.413Z,10.17
2019-01-16T19:48:50.545Z,5.00
2019-01-16T19:51:25.478Z,7.63
2019-01-16T19:54:05.562Z,5.93
2019-01-16T19:56:41.588Z,6.90
2019-01-16T19:59:19.605Z,6.37
2019-01-16T20:02:57.597Z,8.63
2019-01-16T20:07:35.614Z,8.50
2019-01-16T20:12:15.163Z,9.47
2019-01-16T20:14:52.057Z,9.60
2019-01-16T20:17:28.575Z,6.13
2019-01-16T20:20:02.764Z,4.07
2019-01-16T20:22:37.620Z,5.47
2019-01-16T20:25:13.746Z,5.60
2019-01-16T20:27:47.897Z,7.83
2019-01-16T20:30:38.153Z,5.13
2019-01-16T20:33:15.341Z,6.07
2019-01-16T20:35:54.553Z,6.20
2019-01-16T20:38:27.882Z,5.47
2019-01-16T20:41:01.745Z,8.33
2019-01-16T20:43:34.703Z,6.17
2019-01-16T20:46:08.731Z,6.20
2019-01-16T20:49:14.192Z,4.27
2019-01-16T20:52:06.736Z,8.03
2019-01-16T20:55:45.708Z,7.47
2019-01-16T20:58:16.304Z,3.53
2019-01-16T21:00:50.517Z,6.37
2019-01-16T21:03:25.079Z,5.87
2019-01-16T21:06:14.461Z,7.40
2019-01-16T21:08:48.672Z,7.33
2019-01-16T21:11:23.454Z,20.40
2019-01-16T21:13:56.677Z,9.50
2019-01-16T21:16:31.530Z,7.30
2019-01-16T21:19:08.100Z,3.93
2019-01-16T21:21:42.724Z,2.30
2019-01-16T21:24:21.019Z,1.13
2019-01-16T21:27:01.188Z,1.10
2019-01-16T21:29:41.098Z,0.93
2019-01-16T21:32:15.809Z,1.30
2019-01-16T21:34:49.090Z,1.20
2019-01-16T21:37:22.357Z,0.70
2019-01-16T21:39:57.514Z,1.77
2019-01-16T21:42:31.501Z,1.30
2019-01-16T21:45:05.960Z,1.53
2019-01-16T21:48:40.012Z,0.83
2019-01-16T21:52:16.064Z,1.60
2019-01-16T21:54:53.868Z,0.60
